sensor_id;sensor_type;location;lat;lon;timestamp;P1;durP1;ratioP1;P2;durP2;ratioP2
3068;SDS011;1545;51.728;8.796;2022-11-15T00:00:23;27.73;;;15.53;;
3068;SDS011;1545;51.728;8.796;2022-11-15T00:02:49;29.00;;;15.80;;
3068;SDS011;1545;51.728;8.796;2022-11-15T00:05:15;30.07;;;16.23;;
3068;SDS011;1545;51.728;8.796;2022-11-15T00:07:43;30.97;;;15.97;;
3068;SDS011;1545;51.728;8.796;2022-11-15T00:10:09;30.10;;;15.97;;
3068;SDS011;1545;51.728;8.796;2022-11-15T00:12:34;26.63;;;16.13;;
3068;SDS011;1545;51.728;8.796;2022-11-15T00:15:00;28.50;;;16.57;;
3068;SDS011;1545;51.728;8.796;2022-11-15T00:17:25;31.07;;;16.10;;
3068;SDS011;1545;51.728;8.796;2022-11-15T00:19:51;29.33;;;16.97;;
3068;SDS011;1545;51.728;8.796;2022-11-15T00:22:16;30.67;;;17.30;;
3068;SDS011;1545;51.728;8.796;2022-11-15T00:24:42;36.70;;;16.97;;
3068;SDS011;1545;51.728;8.796;2022-11-15T00:27:08;35.17;;;18.60;;
3068;SDS011;1545;51.728;8.796;2022-11-15T00:29:33;33.57;;;17.00;;
3068;SDS011;1545;51.728;8.796;2022-11-15T00:31:59;36.57;;;18.13;;
3068;SDS011;1545;51.728;8.796;2022-11-15T00:34:25;31.33;;;18.40;;
3068;SDS011;1545;51.728;8.796;2022-11-15T00:36:50;37.83;;;19.33;;
3068;SDS011;1545;51.728;8.796;2022-11-15T00:39:16;33.87;;;18.63;;
3068;SDS011;1545;51.728;8.796;2022-11-15T00:41:41;38.53;;;18.57;;
3068;SDS011;1545;51.728;8.796;2022-11-15T00:44:07;34.43;;;18.50;;
3068;SDS011;1545;51.728;8.796;2022-11-15T00:46:32;37.17;;;20.10;;
3068;SDS011;1545;51.728;8.796;2022-11-15T00:48:58;31.97;;;18.17;;
3068;SDS011;1545;51.728;8.796;2022-11-15T00:51:23;35.50;;;19.57;;
3068;SDS011;1545;51.728;8.796;2022-11-15T00:53:49;32.20;;;18.87;;
3068;SDS011;1545;51.728;8.796;2022-11-15T00:56:14;33.60;;;18.57;;
3068;SDS011;1545;51.728;8.796;2022-11-15T00:58:40;34.57;;;18.87;;
3068;SDS011;1545;51.728;8.796;2022-11-15T01:01:06;37.13;;;18.97;;
3068;SDS011;1545;51.728;8.796;2022-11-15T01:03:37;37.93;;;20.00;;
3068;SDS011;1545;51.728;8.796;2022-11-15T01:06:03;35.50;;;20.67;;
3068;SDS011;1545;51.728;8.796;2022-11-15T01:08:30;34.27;;;20.27;;
3068;SDS011;1545;51.728;8.796;2022-11-15T01:10:59;33.13;;;20.03;;
3068;SDS011;1545;51.728;8.796;2022-11-15T01:13:32;43.63;;;21.80;;
3068;SDS011;1545;51.728;8.796;2022-11-15T01:16:05;37.00;;;20.77;;
3068;SDS011;1545;51.728;8.796;2022-11-15T01:18:39;39.93;;;21.67;;
3068;SDS011;1545;51.728;8.796;2022-11-15T01:21:06;42.07;;;21.90;;
3068;SDS011;1545;51.728;8.796;2022-11-15T01:23:32;35.93;;;21.77;;
3068;SDS011;1545;51.728;8.796;2022-11-15T01:26:02;35.33;;;22.57;;
3068;SDS011;1545;51.728;8.796;2022-11-15T01:28:30;41.57;;;22.63;;
3068;SDS011;1545;51.728;8.796;2022-11-15T01:30:58;48.43;;;25.13;;
3068;SDS011;1545;51.728;8.796;2022-11-15T01:33:24;45.27;;;24.73;;
3068;SDS011;1545;51.728;8.796;2022-11-15T01:35:50;46.20;;;25.30;;
3068;SDS011;1545;51.728;8.796;2022-11-15T01:38:15;42.50;;;24.57;;
3068;SDS011;1545;51.728;8.796;2022-11-15T01:40:41;46.67;;;25.83;;
3068;SDS011;1545;51.728;8.796;2022-11-15T01:43:19;46.70;;;24.93;;
3068;SDS011;1545;51.728;8.796;2022-11-15T01:45:45;54.03;;;26.60;;
3068;SDS011;1545;51.728;8.796;2022-11-15T01:48:16;52.10;;;26.57;;
3068;SDS011;1545;51.728;8.796;2022-11-15T01:50:42;52.47;;;27.17;;
3068;SDS011;1545;51.728;8.796;2022-11-15T01:53:07;48.50;;;27.70;;
3068;SDS011;1545;51.728;8.796;2022-11-15T01:55:33;60.37;;;27.00;;
3068;SDS011;1545;51.728;8.796;2022-11-15T01:57:59;52.13;;;28.43;;
3068;SDS011;1545;51.728;8.796;2022-11-15T02:00:28;58.53;;;28.50;;
3068;SDS011;1545;51.728;8.796;2022-11-15T02:02:54;47.03;;;27.90;;
3068;SDS011;1545;51.728;8.796;2022-11-15T02:05:20;50.27;;;28.20;;
3068;SDS011;1545;51.728;8.796;2022-11-15T02:07:45;54.07;;;29.50;;
3068;SDS011;1545;51.728;8.796;2022-11-15T02:10:14;53.70;;;28.20;;
3068;SDS011;1545;51.728;8.796;2022-11-15T02:12:43;56.57;;;28.53;;
3068;SDS011;1545;51.728;8.796;2022-11-15T02:15:10;55.93;;;29.57;;
3068;SDS011;1545;51.728;8.796;2022-11-15T02:23:09;57.73;;;28.30;;
3068;SDS011;1545;51.728;8.796;2022-11-15T02:28:45;57.90;;;29.33;;
3068;SDS011;1545;51.728;8.796;2022-11-15T02:31:49;61.57;;;31.37;;
3068;SDS011;1545;51.728;8.796;2022-11-15T02:42:21;55.67;;;31.13;;
3068;SDS011;1545;51.728;8.796;2022-11-15T02:45:11;60.00;;;31.03;;
3068;SDS011;1545;51.728;8.796;2022-11-15T02:47:44;55.13;;;29.83;;
3068;SDS011;1545;51.728;8.796;2022-11-15T02:50:16;51.03;;;29.07;;
3068;SDS011;1545;51.728;8.796;2022-11-15T02:52:50;60.03;;;29.07;;
3068;SDS011;1545;51.728;8.796;2022-11-15T02:55:35;54.73;;;29.20;;
3068;SDS011;1545;51.728;8.796;2022-11-15T02:58:10;55.30;;;29.27;;
3068;SDS011;1545;51.728;8.796;2022-11-15T03:08:48;54.27;;;28.67;;
3068;SDS011;1545;51.728;8.796;2022-11-15T03:11:17;50.93;;;28.40;;
3068;SDS011;1545;51.728;8.796;2022-11-15T03:16:29;57.70;;;28.97;;
3068;SDS011;1545;51.728;8.796;2022-11-15T03:21:53;45.57;;;27.13;;
3068;SDS011;1545;51.728;8.796;2022-11-15T03:24:22;46.90;;;27.43;;
3068;SDS011;1545;51.728;8.796;2022-11-15T03:26:50;50.10;;;28.30;;
3068;SDS011;1545;51.728;8.796;2022-11-15T03:29:20;45.63;;;27.27;;
3068;SDS011;1545;51.728;8.796;2022-11-15T03:31:52;52.47;;;26.83;;
3068;SDS011;1545;51.728;8.796;2022-11-15T03:37:02;41.03;;;25.30;;
3068;SDS011;1545;51.728;8.796;2022-11-15T03:39:28;42.17;;;25.43;;
3068;SDS011;1545;51.728;8.796;2022-11-15T03:47:08;44.73;;;24.80;;
3068;SDS011;1545;51.728;8.796;2022-11-15T03:49:39;44.70;;;24.87;;
3068;SDS011;1545;51.728;8.796;2022-11-15T03:52:09;43.83;;;25.47;;
3068;SDS011;1545;51.728;8.796;2022-11-15T03:54:36;46.23;;;24.07;;
3068;SDS011;1545;51.728;8.796;2022-11-15T03:57:02;39.17;;;23.53;;
3068;SDS011;1545;51.728;8.796;2022-11-15T03:59:27;39.57;;;23.40;;
3068;SDS011;1545;51.728;8.796;2022-11-15T04:01:53;42.80;;;22.03;;
3068;SDS011;1545;51.728;8.796;2022-11-15T04:04:18;51.23;;;23.60;;
3068;SDS011;1545;51.728;8.796;2022-11-15T04:06:44;37.47;;;23.23;;
3068;SDS011;1545;51.728;8.796;2022-11-15T04:09:09;39.23;;;23.00;;
3068;SDS011;1545;51.728;8.796;2022-11-15T04:11:35;37.87;;;22.93;;
3068;SDS011;1545;51.728;8.796;2022-11-15T04:14:00;37.50;;;22.60;;
3068;SDS011;1545;51.728;8.796;2022-11-15T04:16:26;40.53;;;22.37;;
3068;SDS011;1545;51.728;8.796;2022-11-15T04:18:51;36.97;;;22.10;;
3068;SDS011;1545;51.728;8.796;2022-11-15T04:21:37;42.10;;;22.37;;
3068;SDS011;1545;51.728;8.796;2022-11-15T04:24:21;41.40;;;21.57;;
3068;SDS011;1545;51.728;8.796;2022-11-15T04:26:47;38.40;;;21.03;;
3068;SDS011;1545;51.728;8.796;2022-11-15T04:29:13;35.40;;;21.47;;
3068;SDS011;1545;51.728;8.796;2022-11-15T04:31:57;34.77;;;21.27;;
3068;SDS011;1545;51.728;8.796;2022-11-15T04:34:22;33.67;;;20.90;;
3068;SDS011;1545;51.728;8.796;2022-11-15T04:36:48;34.30;;;21.53;;
3068;SDS011;1545;51.728;8.796;2022-11-15T04:39:32;36.97;;;20.90;;
3068;SDS011;1545;51.728;8.796;2022-11-15T04:41:57;45.57;;;22.00;;
3068;SDS011;1545;51.728;8.796;2022-11-15T04:44:23;33.83;;;20.73;;
3068;SDS011;1545;51.728;8.796;2022-11-15T04:46:48;38.27;;;20.80;;
3068;SDS011;1545;51.728;8.796;2022-11-15T04:49:14;35.20;;;21.90;;
3068;SDS011;1545;51.728;8.796;2022-11-15T04:51:39;35.30;;;20.77;;
3068;SDS011;1545;51.728;8.796;2022-11-15T04:54:05;43.27;;;21.20;;
3068;SDS011;1545;51.728;8.796;2022-11-15T04:56:30;35.50;;;21.07;;
3068;SDS011;1545;51.728;8.796;2022-11-15T04:58:56;38.97;;;21.67;;
3068;SDS011;1545;51.728;8.796;2022-11-15T05:01:21;38.67;;;22.00;;
3068;SDS011;1545;51.728;8.796;2022-11-15T05:03:47;43.07;;;21.50;;
3068;SDS011;1545;51.728;8.796;2022-11-15T05:06:31;36.30;;;21.83;;
3068;SDS011;1545;51.728;8.796;2022-11-15T05:08:57;34.83;;;21.57;;
3068;SDS011;1545;51.728;8.796;2022-11-15T05:11:23;35.90;;;21.77;;
3068;SDS011;1545;51.728;8.796;2022-11-15T05:13:49;38.60;;;22.47;;
3068;SDS011;1545;51.728;8.796;2022-11-15T05:16:15;41.47;;;21.93;;
3068;SDS011;1545;51.728;8.796;2022-11-15T05:18:40;39.00;;;19.73;;
3068;SDS011;1545;51.728;8.796;2022-11-15T05:21:06;37.33;;;20.90;;
3068;SDS011;1545;51.728;8.796;2022-11-15T05:23:33;38.70;;;21.63;;
3068;SDS011;1545;51.728;8.796;2022-11-15T05:25:59;39.23;;;22.57;;
3068;SDS011;1545;51.728;8.796;2022-11-15T05:28:25;36.67;;;22.30;;
3068;SDS011;1545;51.728;8.796;2022-11-15T05:30:51;41.40;;;23.23;;
3068;SDS011;1545;51.728;8.796;2022-11-15T05:33:17;38.90;;;22.77;;
3068;SDS011;1545;51.728;8.796;2022-11-15T05:35:44;46.17;;;22.93;;
3068;SDS011;1545;51.728;8.796;2022-11-15T05:38:13;39.07;;;22.70;;
3068;SDS011;1545;51.728;8.796;2022-11-15T05:40:39;37.33;;;22.60;;
3068;SDS011;1545;51.728;8.796;2022-11-15T05:43:05;35.23;;;20.80;;
3068;SDS011;1545;51.728;8.796;2022-11-15T05:45:31;36.47;;;21.83;;
3068;SDS011;1545;51.728;8.796;2022-11-15T05:47:58;37.33;;;20.80;;
3068;SDS011;1545;51.728;8.796;2022-11-15T05:50:28;33.60;;;20.73;;
3068;SDS011;1545;51.728;8.796;2022-11-15T05:52:54;34.23;;;20.70;;
3068;SDS011;1545;51.728;8.796;2022-11-15T05:55:20;31.77;;;20.23;;
3068;SDS011;1545;51.728;8.796;2022-11-15T05:57:46;33.27;;;19.83;;
3068;SDS011;1545;51.728;8.796;2022-11-15T06:00:12;33.33;;;19.03;;
3068;SDS011;1545;51.728;8.796;2022-11-15T06:02:38;32.87;;;19.20;;
3068;SDS011;1545;51.728;8.796;2022-11-15T06:05:03;30.63;;;18.63;;
3068;SDS011;1545;51.728;8.796;2022-11-15T06:07:29;32.80;;;17.47;;
3068;SDS011;1545;51.728;8.796;2022-11-15T06:09:55;26.17;;;16.13;;
3068;SDS011;1545;51.728;8.796;2022-11-15T06:12:21;33.53;;;17.30;;
3068;SDS011;1545;51.728;8.796;2022-11-15T06:14:46;26.57;;;17.27;;
3068;SDS011;1545;51.728;8.796;2022-11-15T06:17:12;30.57;;;16.30;;
3068;SDS011;1545;51.728;8.796;2022-11-15T06:19:37;27.30;;;16.27;;
3068;SDS011;1545;51.728;8.796;2022-11-15T06:22:03;30.70;;;16.90;;
3068;SDS011;1545;51.728;8.796;2022-11-15T06:24:28;34.00;;;17.17;;
3068;SDS011;1545;51.728;8.796;2022-11-15T06:26:54;25.27;;;16.07;;
3068;SDS011;1545;51.728;8.796;2022-11-15T06:29:19;30.53;;;17.07;;
3068;SDS011;1545;51.728;8.796;2022-11-15T06:31:45;33.43;;;15.93;;
3068;SDS011;1545;51.728;8.796;2022-11-15T06:34:10;24.77;;;15.70;;
3068;SDS011;1545;51.728;8.796;2022-11-15T06:36:36;26.57;;;15.57;;
3068;SDS011;1545;51.728;8.796;2022-11-15T06:39:05;26.93;;;15.13;;
3068;SDS011;1545;51.728;8.796;2022-11-15T06:41:33;26.33;;;15.53;;
3068;SDS011;1545;51.728;8.796;2022-11-15T06:44:00;28.60;;;15.43;;
3068;SDS011;1545;51.728;8.796;2022-11-15T06:46:25;24.00;;;15.37;;
3068;SDS011;1545;51.728;8.796;2022-11-15T06:48:51;25.40;;;15.27;;
3068;SDS011;1545;51.728;8.796;2022-11-15T06:51:17;26.10;;;14.33;;
3068;SDS011;1545;51.728;8.796;2022-11-15T06:53:43;25.97;;;14.63;;
3068;SDS011;1545;51.728;8.796;2022-11-15T06:56:09;26.50;;;15.03;;
3068;SDS011;1545;51.728;8.796;2022-11-15T06:58:35;28.17;;;15.43;;
3068;SDS011;1545;51.728;8.796;2022-11-15T07:01:02;30.50;;;15.57;;
3068;SDS011;1545;51.728;8.796;2022-11-15T07:03:29;28.53;;;14.90;;
3068;SDS011;1545;51.728;8.796;2022-11-15T07:05:55;35.97;;;16.10;;
3068;SDS011;1545;51.728;8.796;2022-11-15T07:08:22;30.53;;;15.20;;
3068;SDS011;1545;51.728;8.796;2022-11-15T07:10:48;28.23;;;16.03;;
3068;SDS011;1545;51.728;8.796;2022-11-15T07:13:14;25.40;;;15.03;;
3068;SDS011;1545;51.728;8.796;2022-11-15T07:15:40;23.87;;;14.80;;
3068;SDS011;1545;51.728;8.796;2022-11-15T07:18:06;26.23;;;15.43;;
3068;SDS011;1545;51.728;8.796;2022-11-15T07:20:31;26.50;;;14.77;;
3068;SDS011;1545;51.728;8.796;2022-11-15T07:23:00;25.37;;;15.40;;
3068;SDS011;1545;51.728;8.796;2022-11-15T07:25:30;25.97;;;14.67;;
3068;SDS011;1545;51.728;8.796;2022-11-15T07:27:56;24.53;;;14.53;;
3068;SDS011;1545;51.728;8.796;2022-11-15T07:30:23;23.10;;;13.63;;
3068;SDS011;1545;51.728;8.796;2022-11-15T07:32:56;20.80;;;12.43;;
3068;SDS011;1545;51.728;8.796;2022-11-15T07:35:23;29.60;;;13.33;;
3068;SDS011;1545;51.728;8.796;2022-11-15T07:40:28;23.73;;;12.07;;
3068;SDS011;1545;51.728;8.796;2022-11-15T07:43:03;20.37;;;10.90;;
3068;SDS011;1545;51.728;8.796;2022-11-15T07:45:30;20.63;;;11.20;;
3068;SDS011;1545;51.728;8.796;2022-11-15T07:47:58;18.30;;;10.03;;
3068;SDS011;1545;51.728;8.796;2022-11-15T07:50:25;14.93;;;9.50;;
3068;SDS011;1545;51.728;8.796;2022-11-15T07:52:57;18.13;;;10.17;;
3068;SDS011;1545;51.728;8.796;2022-11-15T07:55:24;18.37;;;10.00;;
3068;SDS011;1545;51.728;8.796;2022-11-15T07:57:52;19.60;;;10.03;;
3068;SDS011;1545;51.728;8.796;2022-11-15T08:00:18;18.37;;;9.03;;
3068;SDS011;1545;51.728;8.796;2022-11-15T08:02:44;17.67;;;9.13;;
3068;SDS011;1545;51.728;8.796;2022-11-15T08:05:09;16.17;;;9.93;;
3068;SDS011;1545;51.728;8.796;2022-11-15T08:07:35;16.00;;;9.90;;
3068;SDS011;1545;51.728;8.796;2022-11-15T08:10:00;15.70;;;10.10;;
3068;SDS011;1545;51.728;8.796;2022-11-15T08:12:29;18.60;;;9.67;;
3068;SDS011;1545;51.728;8.796;2022-11-15T08:14:55;20.40;;;10.70;;
3068;SDS011;1545;51.728;8.796;2022-11-15T08:17:21;16.10;;;10.67;;
3068;SDS011;1545;51.728;8.796;2022-11-15T08:19:47;17.73;;;10.27;;
3068;SDS011;1545;51.728;8.796;2022-11-15T08:22:13;19.73;;;10.67;;
3068;SDS011;1545;51.728;8.796;2022-11-15T08:24:39;21.57;;;11.37;;
3068;SDS011;1545;51.728;8.796;2022-11-15T08:27:05;25.83;;;11.23;;
3068;SDS011;1545;51.728;8.796;2022-11-15T08:29:45;26.97;;;11.40;;
3068;SDS011;1545;51.728;8.796;2022-11-15T08:32:11;16.42;;;10.70;;
3068;SDS011;1545;51.728;8.796;2022-11-15T08:34:37;19.93;;;10.67;;
3068;SDS011;1545;51.728;8.796;2022-11-15T08:37:03;16.00;;;10.53;;
3068;SDS011;1545;51.728;8.796;2022-11-15T08:39:29;19.83;;;10.83;;
3068;SDS011;1545;51.728;8.796;2022-11-15T08:41:55;19.90;;;10.47;;
3068;SDS011;1545;51.728;8.796;2022-11-15T08:44:20;17.07;;;10.30;;
3068;SDS011;1545;51.728;8.796;2022-11-15T08:46:46;17.20;;;10.60;;
3068;SDS011;1545;51.728;8.796;2022-11-15T08:49:12;16.57;;;10.33;;
3068;SDS011;1545;51.728;8.796;2022-11-15T08:51:38;16.80;;;10.33;;
3068;SDS011;1545;51.728;8.796;2022-11-15T08:54:03;15.87;;;9.67;;
3068;SDS011;1545;51.728;8.796;2022-11-15T08:56:29;22.57;;;9.70;;
3068;SDS011;1545;51.728;8.796;2022-11-15T08:58:56;12.97;;;8.83;;
3068;SDS011;1545;51.728;8.796;2022-11-15T09:01:21;17.17;;;9.33;;
3068;SDS011;1545;51.728;8.796;2022-11-15T09:03:47;16.07;;;9.07;;
3068;SDS011;1545;51.728;8.796;2022-11-15T09:06:13;15.17;;;8.40;;
3068;SDS011;1545;51.728;8.796;2022-11-15T09:08:38;15.07;;;8.60;;
3068;SDS011;1545;51.728;8.796;2022-11-15T09:11:07;16.33;;;8.53;;
3068;SDS011;1545;51.728;8.796;2022-11-15T09:13:34;13.80;;;8.50;;
3068;SDS011;1545;51.728;8.796;2022-11-15T09:16:02;13.57;;;7.93;;
3068;SDS011;1545;51.728;8.796;2022-11-15T09:18:28;14.37;;;8.20;;
3068;SDS011;1545;51.728;8.796;2022-11-15T09:20:57;14.97;;;7.90;;
3068;SDS011;1545;51.728;8.796;2022-11-15T09:23:24;14.10;;;7.57;;
3068;SDS011;1545;51.728;8.796;2022-11-15T09:25:50;16.10;;;7.77;;
3068;SDS011;1545;51.728;8.796;2022-11-15T09:28:16;15.23;;;7.07;;
3068;SDS011;1545;51.728;8.796;2022-11-15T09:30:41;10.43;;;6.67;;
3068;SDS011;1545;51.728;8.796;2022-11-15T09:33:10;11.33;;;7.30;;
3068;SDS011;1545;51.728;8.796;2022-11-15T09:35:37;11.35;;;6.85;;
3068;SDS011;1545;51.728;8.796;2022-11-15T09:38:03;14.37;;;7.17;;
3068;SDS011;1545;51.728;8.796;2022-11-15T09:40:30;13.10;;;6.93;;
3068;SDS011;1545;51.728;8.796;2022-11-15T09:46:07;12.13;;;6.10;;
3068;SDS011;1545;51.728;8.796;2022-11-15T09:48:56;13.53;;;8.10;;
3068;SDS011;1545;51.728;8.796;2022-11-15T09:51:30;13.27;;;6.80;;
3068;SDS011;1545;51.728;8.796;2022-11-15T09:56:30;10.18;;;5.82;;
3068;SDS011;1545;51.728;8.796;2022-11-15T10:05:01;10.43;;;5.10;;
3068;SDS011;1545;51.728;8.796;2022-11-15T10:10:04;9.10;;;4.43;;
3068;SDS011;1545;51.728;8.796;2022-11-15T10:12:45;7.00;;;4.07;;
3068;SDS011;1545;51.728;8.796;2022-11-15T10:15:15;7.73;;;4.17;;
3068;SDS011;1545;51.728;8.796;2022-11-15T10:18:06;6.70;;;3.80;;
3068;SDS011;1545;51.728;8.796;2022-11-15T10:20:52;10.43;;;3.97;;
3068;SDS011;1545;51.728;8.796;2022-11-15T10:23:24;5.57;;;3.50;;
3068;SDS011;1545;51.728;8.796;2022-11-15T10:26:00;5.80;;;3.80;;
3068;SDS011;1545;51.728;8.796;2022-11-15T10:28:27;5.33;;;3.67;;
3068;SDS011;1545;51.728;8.796;2022-11-15T10:30:55;6.67;;;4.03;;
3068;SDS011;1545;51.728;8.796;2022-11-15T10:38:51;7.93;;;4.03;;
3068;SDS011;1545;51.728;8.796;2022-11-15T10:43:45;7.43;;;4.30;;
3068;SDS011;1545;51.728;8.796;2022-11-15T10:46:26;8.03;;;4.10;;
3068;SDS011;1545;51.728;8.796;2022-11-15T10:48:51;7.73;;;4.30;;
3068;SDS011;1545;51.728;8.796;2022-11-15T10:51:21;4.87;;;3.50;;
3068;SDS011;1545;51.728;8.796;2022-11-15T10:53:53;4.40;;;3.23;;
3068;SDS011;1545;51.728;8.796;2022-11-15T10:56:24;7.97;;;4.03;;
3068;SDS011;1545;51.728;8.796;2022-11-15T10:58:51;7.10;;;3.72;;
3068;SDS011;1545;51.728;8.796;2022-11-15T11:01:22;8.67;;;4.17;;
3068;SDS011;1545;51.728;8.796;2022-11-15T11:06:52;6.83;;;3.50;;
3068;SDS011;1545;51.728;8.796;2022-11-15T11:11:56;7.10;;;3.50;;
3068;SDS011;1545;51.728;8.796;2022-11-15T11:14:23;6.93;;;3.73;;
3068;SDS011;1545;51.728;8.796;2022-11-15T11:16:54;5.50;;;3.80;;
3068;SDS011;1545;51.728;8.796;2022-11-15T11:20:02;5.63;;;3.37;;
3068;SDS011;1545;51.728;8.796;2022-11-15T11:25:48;2.53;;;2.07;;
3068;SDS011;1545;51.728;8.796;2022-11-15T11:31:28;4.27;;;2.17;;
3068;SDS011;1545;51.728;8.796;2022-11-15T11:37:03;7.07;;;3.70;;
3068;SDS011;1545;51.728;8.796;2022-11-15T11:40:05;16.83;;;4.17;;
3068;SDS011;1545;51.728;8.796;2022-11-15T11:42:47;6.03;;;3.53;;
3068;SDS011;1545;51.728;8.796;2022-11-15T11:45:40;4.23;;;3.53;;
3068;SDS011;1545;51.728;8.796;2022-11-15T11:51:02;9.73;;;4.40;;
3068;SDS011;1545;51.728;8.796;2022-11-15T11:53:39;7.20;;;4.47;;
3068;SDS011;1545;51.728;8.796;2022-11-15T11:56:44;10.23;;;4.70;;
3068;SDS011;1545;51.728;8.796;2022-11-15T11:59:28;7.17;;;4.27;;
3068;SDS011;1545;51.728;8.796;2022-11-15T12:02:16;10.53;;;4.90;;
3068;SDS011;1545;51.728;8.796;2022-11-15T12:04:50;9.90;;;5.00;;
3068;SDS011;1545;51.728;8.796;2022-11-15T12:07:21;6.87;;;4.77;;
3068;SDS011;1545;51.728;8.796;2022-11-15T12:10:01;7.27;;;4.80;;
3068;SDS011;1545;51.728;8.796;2022-11-15T12:12:58;9.93;;;5.50;;
3068;SDS011;1545;51.728;8.796;2022-11-15T12:15:26;7.20;;;5.37;;
3068;SDS011;1545;51.728;8.796;2022-11-15T12:17:57;9.90;;;5.57;;
3068;SDS011;1545;51.728;8.796;2022-11-15T12:20:40;12.87;;;6.73;;
3068;SDS011;1545;51.728;8.796;2022-11-15T12:23:16;9.43;;;6.17;;
3068;SDS011;1545;51.728;8.796;2022-11-15T12:25:53;10.33;;;6.27;;
3068;SDS011;1545;51.728;8.796;2022-11-15T12:28:52;8.73;;;5.60;;
3068;SDS011;1545;51.728;8.796;2022-11-15T12:31:34;10.47;;;6.00;;
3068;SDS011;1545;51.728;8.796;2022-11-15T12:36:53;9.30;;;6.27;;
3068;SDS011;1545;51.728;8.796;2022-11-15T12:39:19;9.83;;;5.87;;
3068;SDS011;1545;51.728;8.796;2022-11-15T13:02:24;9.82;;;5.25;;
3068;SDS011;1545;51.728;8.796;2022-11-15T13:04:52;9.70;;;4.93;;
3068;SDS011;1545;51.728;8.796;2022-11-15T13:10:01;10.47;;;5.00;;
3068;SDS011;1545;51.728;8.796;2022-11-15T13:15:30;9.00;;;5.27;;
3068;SDS011;1545;51.728;8.796;2022-11-15T13:18:26;12.23;;;5.10;;
3068;SDS011;1545;51.728;8.796;2022-11-15T13:21:04;7.97;;;4.80;;
3068;SDS011;1545;51.728;8.796;2022-11-15T13:24:03;12.83;;;6.20;;
3068;SDS011;1545;51.728;8.796;2022-11-15T13:26:29;7.27;;;5.00;;
3068;SDS011;1545;51.728;8.796;2022-11-15T13:28:55;10.13;;;5.40;;
3068;SDS011;1545;51.728;8.796;2022-11-15T13:31:25;7.77;;;4.90;;
3068;SDS011;1545;51.728;8.796;2022-11-15T13:36:53;7.47;;;4.80;;
3068;SDS011;1545;51.728;8.796;2022-11-15T13:39:26;12.37;;;5.27;;
3068;SDS011;1545;51.728;8.796;2022-11-15T13:41:56;7.93;;;4.40;;
3068;SDS011;1545;51.728;8.796;2022-11-15T13:44:26;7.23;;;4.30;;
3068;SDS011;1545;51.728;8.796;2022-11-15T13:49:39;9.47;;;4.63;;
3068;SDS011;1545;51.728;8.796;2022-11-15T13:52:06;18.67;;;5.23;;
3068;SDS011;1545;51.728;8.796;2022-11-15T13:54:34;9.03;;;4.73;;
3068;SDS011;1545;51.728;8.796;2022-11-15T13:57:02;6.43;;;4.43;;
3068;SDS011;1545;51.728;8.796;2022-11-15T14:02:14;11.60;;;6.00;;
3068;SDS011;1545;51.728;8.796;2022-11-15T14:04:46;7.30;;;3.80;;
3068;SDS011;1545;51.728;8.796;2022-11-15T14:07:17;7.97;;;4.70;;
3068;SDS011;1545;51.728;8.796;2022-11-15T14:09:45;11.40;;;3.67;;
3068;SDS011;1545;51.728;8.796;2022-11-15T14:12:21;10.90;;;5.00;;
3068;SDS011;1545;51.728;8.796;2022-11-15T14:14:50;7.57;;;5.00;;
3068;SDS011;1545;51.728;8.796;2022-11-15T14:17:35;7.97;;;4.20;;
3068;SDS011;1545;51.728;8.796;2022-11-15T14:20:18;14.93;;;4.37;;
3068;SDS011;1545;51.728;8.796;2022-11-15T14:22:52;12.27;;;4.70;;
3068;SDS011;1545;51.728;8.796;2022-11-15T14:25:22;6.23;;;4.23;;
3068;SDS011;1545;51.728;8.796;2022-11-15T14:30:35;8.33;;;4.10;;
3068;SDS011;1545;51.728;8.796;2022-11-15T14:33:01;8.93;;;4.70;;
3068;SDS011;1545;51.728;8.796;2022-11-15T14:35:42;7.70;;;3.87;;
3068;SDS011;1545;51.728;8.796;2022-11-15T14:38:07;5.70;;;3.37;;
3068;SDS011;1545;51.728;8.796;2022-11-15T14:40:33;6.27;;;3.60;;
3068;SDS011;1545;51.728;8.796;2022-11-15T14:42:58;10.93;;;3.63;;
3068;SDS011;1545;51.728;8.796;2022-11-15T14:45:26;6.57;;;3.97;;
3068;SDS011;1545;51.728;8.796;2022-11-15T14:47:52;10.07;;;4.03;;
3068;SDS011;1545;51.728;8.796;2022-11-15T14:50:18;8.73;;;4.60;;
3068;SDS011;1545;51.728;8.796;2022-11-15T14:52:45;8.17;;;4.53;;
3068;SDS011;1545;51.728;8.796;2022-11-15T14:55:14;6.83;;;3.70;;
3068;SDS011;1545;51.728;8.796;2022-11-15T14:57:43;8.40;;;4.30;;
3068;SDS011;1545;51.728;8.796;2022-11-15T15:00:10;6.80;;;4.63;;
3068;SDS011;1545;51.728;8.796;2022-11-15T15:02:36;10.43;;;3.80;;
3068;SDS011;1545;51.728;8.796;2022-11-15T15:05:09;6.53;;;3.93;;
3068;SDS011;1545;51.728;8.796;2022-11-15T15:07:41;9.70;;;3.97;;
3068;SDS011;1545;51.728;8.796;2022-11-15T15:10:07;6.17;;;3.93;;
3068;SDS011;1545;51.728;8.796;2022-11-15T15:12:33;8.20;;;4.00;;
3068;SDS011;1545;51.728;8.796;2022-11-15T15:14:58;9.80;;;4.40;;
3068;SDS011;1545;51.728;8.796;2022-11-15T15:17:24;4.83;;;3.70;;
3068;SDS011;1545;51.728;8.796;2022-11-15T15:19:49;10.27;;;3.83;;
3068;SDS011;1545;51.728;8.796;2022-11-15T15:22:16;6.33;;;4.40;;
3068;SDS011;1545;51.728;8.796;2022-11-15T15:24:44;8.83;;;4.93;;
3068;SDS011;1545;51.728;8.796;2022-11-15T15:27:10;7.43;;;3.97;;
3068;SDS011;1545;51.728;8.796;2022-11-15T15:29:37;7.67;;;4.33;;
3068;SDS011;1545;51.728;8.796;2022-11-15T15:32:03;7.90;;;4.07;;
3068;SDS011;1545;51.728;8.796;2022-11-15T15:34:29;9.80;;;4.13;;
3068;SDS011;1545;51.728;8.796;2022-11-15T15:37:07;6.17;;;3.73;;
3068;SDS011;1545;51.728;8.796;2022-11-15T15:39:47;9.17;;;4.00;;
3068;SDS011;1545;51.728;8.796;2022-11-15T15:42:14;8.90;;;4.00;;
3068;SDS011;1545;51.728;8.796;2022-11-15T15:44:39;7.17;;;4.13;;
3068;SDS011;1545;51.728;8.796;2022-11-15T15:47:11;5.53;;;3.40;;
3068;SDS011;1545;51.728;8.796;2022-11-15T15:49:42;6.30;;;3.77;;
3068;SDS011;1545;51.728;8.796;2022-11-15T15:52:08;4.93;;;3.70;;
3068;SDS011;1545;51.728;8.796;2022-11-15T15:54:33;8.93;;;4.17;;
3068;SDS011;1545;51.728;8.796;2022-11-15T15:56:59;6.43;;;3.80;;
3068;SDS011;1545;51.728;8.796;2022-11-15T15:59:24;6.83;;;3.93;;
3068;SDS011;1545;51.728;8.796;2022-11-15T16:01:50;6.97;;;3.80;;
3068;SDS011;1545;51.728;8.796;2022-11-15T16:04:15;7.33;;;4.00;;
3068;SDS011;1545;51.728;8.796;2022-11-15T16:06:42;5.50;;;3.90;;
3068;SDS011;1545;51.728;8.796;2022-11-15T16:09:12;6.40;;;4.10;;
3068;SDS011;1545;51.728;8.796;2022-11-15T16:11:40;6.73;;;4.33;;
3068;SDS011;1545;51.728;8.796;2022-11-15T16:14:06;8.37;;;3.90;;
3068;SDS011;1545;51.728;8.796;2022-11-15T16:16:32;8.20;;;3.77;;
3068;SDS011;1545;51.728;8.796;2022-11-15T16:18:59;8.13;;;4.10;;
3068;SDS011;1545;51.728;8.796;2022-11-15T16:21:25;6.57;;;4.00;;
3068;SDS011;1545;51.728;8.796;2022-11-15T16:23:51;9.30;;;4.33;;
3068;SDS011;1545;51.728;8.796;2022-11-15T16:26:21;6.57;;;3.97;;
3068;SDS011;1545;51.728;8.796;2022-11-15T16:28:47;8.80;;;4.00;;
3068;SDS011;1545;51.728;8.796;2022-11-15T16:31:13;8.43;;;4.13;;
3068;SDS011;1545;51.728;8.796;2022-11-15T16:33:39;7.27;;;4.10;;
3068;SDS011;1545;51.728;8.796;2022-11-15T16:36:06;12.23;;;4.17;;
3068;SDS011;1545;51.728;8.796;2022-11-15T16:38:40;7.10;;;4.10;;
3068;SDS011;1545;51.728;8.796;2022-11-15T16:41:05;9.57;;;4.13;;
3068;SDS011;1545;51.728;8.796;2022-11-15T16:43:31;8.47;;;4.20;;
3068;SDS011;1545;51.728;8.796;2022-11-15T16:45:56;5.97;;;4.23;;
3068;SDS011;1545;51.728;8.796;2022-11-15T16:48:23;10.17;;;4.40;;
3068;SDS011;1545;51.728;8.796;2022-11-15T16:50:55;7.70;;;4.30;;
3068;SDS011;1545;51.728;8.796;2022-11-15T16:53:22;7.90;;;4.43;;
3068;SDS011;1545;51.728;8.796;2022-11-15T16:55:48;6.23;;;4.60;;
3068;SDS011;1545;51.728;8.796;2022-11-15T16:58:13;11.60;;;4.53;;
3068;SDS011;1545;51.728;8.796;2022-11-15T17:00:39;7.57;;;4.50;;
3068;SDS011;1545;51.728;8.796;2022-11-15T17:03:04;9.27;;;4.83;;
3068;SDS011;1545;51.728;8.796;2022-11-15T17:05:31;10.13;;;5.10;;
3068;SDS011;1545;51.728;8.796;2022-11-15T17:07:56;6.73;;;4.23;;
3068;SDS011;1545;51.728;8.796;2022-11-15T17:10:22;7.00;;;4.27;;